Time;durP1;ratioP1;P1;durP2;ratioP2;P2;SDS_P1;SDS_P2;PMS_P1;PMS_P2;Temp;Humidity;BMP_temperature;BMP_pressure;BME280_temperature;BME280_humidity;BME280_pressure;Samples;Min_cycle;Max_cycle;Signal;HPM_P1;HPM_P2
2021/12/19 00:02:27;;;;;;;1.00;0.70;;;;;;;1.24;84.03;99148.94;1798522;77;21420;-55
2021/12/19 00:08:27;;;;;;;0.67;0.50;;;;;;;1.23;84.05;99137.45;1796679;77;21094;-55
2021/12/19 00:09:54;;;;;;;1.00;0.60;;;;;;;1.25;84.11;99135.66;1799111;77;22444;-56
2021/12/19 00:12:21;;;;;;;0.60;0.53;;;;;;;1.27;84.14;99127.67;1735474;80;20913;-57
2021/12/19 00:14:48;;;;;;;0.87;0.60;;;;;;;1.27;84.08;99120.59;1747804;80;21347;-55
2021/12/19 00:17:14;;;;;;;1.93;1.13;;;;;;;1.27;84.17;99117.95;1729631;80;21738;-55
2021/12/19 00:19:40;;;;;;;1.53;0.80;;;;;;;1.28;84.18;99113.03;1752221;79;21079;-56
2021/12/19 00:22:07;;;;;;;0.90;0.70;;;;;;;1.27;84.14;99105.14;1751330;79;21003;-55
2021/12/19 00:24:34;;;;;;;0.80;0.60;;;;;;;1.30;84.13;99110.36;1746946;79;21138;-56
2021/12/19 00:27:00;;;;;;;0.80;0.60;;;;;;;1.28;84.07;99103.75;1750251;79;21095;-56
2021/12/19 00:29:27;;;;;;;1.00;0.60;;;;;;;1.28;84.10;99101.55;1748427;79;22431;-56
2021/12/19 00:31:54;;;;;;;1.17;0.60;;;;;;;1.25;84.19;99093.23;1748584;80;21490;-56
2021/12/19 00:34:20;;;;;;;1.03;0.60;;;;;;;1.26;84.23;99091.01;1750733;80;21495;-54
2021/12/19 00:36:47;;;;;;;0.67;0.57;;;;;;;1.29;84.23;99076.34;1746438;79;21025;-54
2021/12/19 00:39:13;;;;;;;1.67;0.50;;;;;;;1.30;84.16;99069.26;1744171;80;21333;-54
2021/12/19 00:41:39;;;;;;;1.40;0.80;;;;;;;1.32;84.21;99071.44;1744738;79;21030;-55
2021/12/19 00:44:08;;;;;;;1.33;0.70;;;;;;;1.33;84.22;99062.58;1742163;80;21470;-54
2021/12/19 00:46:46;;;;;;;1.00;0.70;;;;;;;1.34;84.21;99057.70;1795401;78;20897;-55
2021/12/19 00:49:07;;;;;;;1.57;0.73;;;;;;;1.35;84.12;99051.49;1793530;78;21011;-55
2021/12/19 00:51:33;;;;;;;1.00;0.70;;;;;;;1.33;84.06;99036.94;1807156;77;21078;-55
2021/12/19 00:53:59;;;;;;;1.00;0.70;;;;;;;1.32;84.11;99036.52;1791398;78;21306;-55
2021/12/19 00:56:26;;;;;;;2.10;1.30;;;;;;;1.33;84.19;99024.13;1793216;78;21827;-56
2021/12/19 00:58:52;;;;;;;1.37;0.80;;;;;;;1.35;84.26;99026.30;1789555;78;21107;-56
2021/12/19 01:01:18;;;;;;;1.70;0.80;;;;;;;1.35;84.31;99023.20;1793791;77;21087;-54
2021/12/19 01:03:47;;;;;;;1.93;0.90;;;;;;;1.36;84.31;99020.94;1805013;77;20995;-56
2021/12/19 01:06:17;;;;;;;1.17;0.80;;;;;;;1.33;84.17;99020.16;1802364;77;21364;-56
2021/12/19 01:08:43;;;;;;;0.90;0.80;;;;;;;1.29;84.25;99007.41;1800749;77;22398;-55
2021/12/19 01:11:10;;;;;;;1.70;0.80;;;;;;;1.28;84.23;99002.13;1793718;78;21612;-55
2021/12/19 01:13:36;;;;;;;1.40;0.70;;;;;;;1.27;84.29;98985.84;1793473;78;20995;-55
2021/12/19 01:16:02;;;;;;;1.17;0.80;;;;;;;1.26;84.38;98996.02;1805466;77;21016;-54
2021/12/19 01:18:29;;;;;;;3.47;0.70;;;;;;;1.23;84.40;98996.08;1803177;77;21086;-55
2021/12/19 01:20:55;;;;;;;1.13;0.77;;;;;;;1.23;84.48;98987.67;1803994;77;21178;-55
2021/12/19 01:23:22;;;;;;;1.10;0.80;;;;;;;1.25;84.51;98985.87;1803529;77;21036;-55
2021/12/19 01:25:50;;;;;;;1.20;0.70;;;;;;;1.25;84.52;98974.39;1803716;77;21380;-55
2021/12/19 01:28:16;;;;;;;1.03;0.93;;;;;;;1.26;84.56;98982.31;1808912;77;20897;-55
2021/12/19 01:30:43;;;;;;;1.20;0.90;;;;;;;1.25;84.55;98976.59;1797257;77;20862;-54
2021/12/19 01:33:09;;;;;;;0.97;0.80;;;;;;;1.26;84.53;98962.88;1811405;77;21079;-56
2021/12/19 01:35:36;;;;;;;1.27;0.70;;;;;;;1.26;84.52;98958.45;1810460;77;20928;-56
2021/12/19 01:38:02;;;;;;;0.90;0.70;;;;;;;1.25;84.56;98945.22;1813731;77;21017;-55
2021/12/19 01:40:29;;;;;;;0.90;0.70;;;;;;;1.26;84.63;98949.63;1810307;77;20889;-55
2021/12/19 01:42:56;;;;;;;1.10;0.70;;;;;;;1.30;84.68;98944.20;1801361;77;20942;-55
2021/12/19 01:45:33;;;;;;;1.23;0.70;;;;;;;1.33;84.64;98942.81;1802095;77;21073;-55
2021/12/19 01:48:01;;;;;;;0.90;0.70;;;;;;;1.38;84.68;98927.64;1795560;77;20973;-56
2021/12/19 01:50:29;;;;;;;0.97;0.70;;;;;;;1.39;84.62;98908.63;1798997;77;21044;-56
2021/12/19 01:52:56;;;;;;;1.10;0.67;;;;;;;1.39;84.54;98888.30;1795181;77;20901;-55
2021/12/19 01:55:22;;;;;;;0.97;0.70;;;;;;;1.38;84.46;98893.63;1797183;77;20921;-56
2021/12/19 01:57:48;;;;;;;0.90;0.70;;;;;;;1.37;84.43;98894.53;1794868;77;21113;-56
2021/12/19 02:00:31;;;;;;;1.13;0.70;;;;;;;1.36;84.44;98888.36;1791636;77;21032;-55
2021/12/19 02:02:57;;;;;;;1.00;0.70;;;;;;;1.37;84.44;98883.47;1795151;77;22394;-56
2021/12/19 02:05:25;;;;;;;0.97;0.60;;;;;;;1.39;84.46;98876.36;1789609;77;21071;-56
2021/12/19 02:07:52;;;;;;;1.17;1.07;;;;;;;1.39;84.45;98871.05;1794114;77;21123;-56
2021/12/19 02:10:21;;;;;;;0.80;0.70;;;;;;;1.39;84.44;98868.86;1794573;77;21094;-56
2021/12/19 02:12:49;;;;;;;0.80;0.70;;;;;;;1.39;84.54;98871.05;1795623;77;21414;-55
2021/12/19 02:15:19;;;;;;;0.90;0.70;;;;;;;1.39;84.46;98853.82;1796757;77;20949;-55
2021/12/19 02:17:46;;;;;;;0.97;0.80;;;;;;;1.38;84.44;98842.80;1792757;77;21616;-56
2021/12/19 02:20:13;;;;;;;1.13;0.70;;;;;;;1.39;84.40;98838.36;1794718;77;22224;-55
2021/12/19 02:22:40;;;;;;;1.20;0.70;;;;;;;1.37;84.36;98834.42;1797542;77;21881;-55
2021/12/19 02:25:08;;;;;;;0.80;0.67;;;;;;;1.35;84.39;98826.98;1792839;77;21003;-52
2021/12/19 02:27:35;;;;;;;1.13;0.70;;;;;;;1.34;84.43;98823.05;1795314;77;21095;-53
2021/12/19 02:30:03;;;;;;;1.00;0.73;;;;;;;1.34;84.52;98821.72;1791353;77;21068;-52
2021/12/19 02:32:31;;;;;;;0.90;0.70;;;;;;;1.35;84.56;98814.18;1795452;77;21039;-55
2021/12/19 02:35:01;;;;;;;1.40;0.80;;;;;;;1.35;84.57;98811.08;1795264;77;21992;-52
2021/12/19 02:48:11;;;;;;;1.00;0.63;;;;;;;1.36;84.53;98788.92;1797383;77;22371;-53
2021/12/19 02:50:51;;;;;;;0.80;0.70;;;;;;;1.33;84.54;98785.50;1794063;77;21059;-53
2021/12/19 02:53:29;;;;;;;0.80;0.57;;;;;;;1.30;84.62;98774.97;1742514;79;21430;-53
2021/12/19 02:55:55;;;;;;;0.70;0.60;;;;;;;1.29;84.70;98769.25;1793639;77;21869;-54
2021/12/19 02:58:22;;;;;;;1.00;0.70;;;;;;;1.31;84.77;98755.05;1797633;77;20933;-54
2021/12/19 03:00:49;;;;;;;0.70;0.50;;;;;;;1.32;84.82;98766.53;1795245;77;21872;-53
2021/12/19 03:03:15;;;;;;;0.80;0.63;;;;;;;1.34;84.98;98760.28;1793239;77;21671;-53
2021/12/19 03:05:42;;;;;;;0.93;0.70;;;;;;;1.36;84.98;98756.27;1794010;77;22482;-53
2021/12/19 03:08:10;;;;;;;0.97;0.70;;;;;;;1.36;84.95;98747.83;1791255;77;21639;-51
2021/12/19 03:13:48;;;;;;;0.80;0.70;;;;;;;1.33;84.93;98738.66;1792487;77;21115;-54
2021/12/19 03:18:39;;;;;;;0.80;0.70;;;;;;;1.31;85.04;98714.41;1795176;77;21103;-56
2021/12/19 03:21:11;;;;;;;2.60;0.70;;;;;;;1.33;85.16;98712.14;1793315;77;21055;-57
2021/12/19 03:23:35;;;;;;;1.07;0.60;;;;;;;1.35;85.19;98707.67;1798122;77;21304;-58
2021/12/19 03:26:01;;;;;;;0.80;0.73;;;;;;;1.36;85.26;98704.08;1790054;77;21066;-54
2021/12/19 03:28:28;;;;;;;0.97;0.77;;;;;;;1.37;85.31;98700.97;1792214;77;20995;-58
2021/12/19 03:30:54;;;;;;;1.20;0.83;;;;;;;1.35;85.34;98686.46;1790939;77;21546;-54
2021/12/19 03:33:20;;;;;;;1.00;0.70;;;;;;;1.34;85.28;98686.50;1793563;77;21535;-55
2021/12/19 03:35:47;;;;;;;1.10;0.77;;;;;;;1.31;85.27;98683.92;1791801;77;21554;-56
2021/12/19 03:38:17;;;;;;;1.43;0.60;;;;;;;1.30;85.33;98679.53;1772052;77;21707;-57
2021/12/19 03:40:51;;;;;;;1.10;0.80;;;;;;;1.30;85.46;98666.27;1769668;78;20928;-56
2021/12/19 03:43:16;;;;;;;1.10;0.73;;;;;;;1.32;85.47;98664.45;1768048;78;20953;-54
2021/12/19 03:45:44;;;;;;;0.73;0.60;;;;;;;1.31;85.52;98658.28;1767269;78;21031;-58
2021/12/19 03:48:12;;;;;;;0.77;0.50;;;;;;;1.32;85.61;98656.05;1767744;78;21095;-56
2021/12/19 03:50:42;;;;;;;0.70;0.53;;;;;;;1.34;85.65;98649.38;1770686;78;21109;-55
2021/12/19 03:53:08;;;;;;;0.80;0.70;;;;;;;1.36;85.73;98631.17;1768072;78;21478;-57
2021/12/19 03:55:34;;;;;;;0.80;0.70;;;;;;;1.38;85.67;98633.33;1766225;78;21025;-56
2021/12/19 03:58:02;;;;;;;0.60;0.60;;;;;;;1.38;85.65;98615.22;1764308;78;21044;-54
2021/12/19 04:00:30;;;;;;;1.70;0.70;;;;;;;1.36;85.65;98613.93;1766159;78;21048;-57
2021/12/19 04:03:00;;;;;;;0.73;0.60;;;;;;;1.36;85.63;98605.98;1765737;78;21176;-54
2021/12/19 04:05:27;;;;;;;0.80;0.60;;;;;;;1.32;85.65;98604.34;1763081;78;21033;-57
2021/12/19 04:07:54;;;;;;;0.90;0.70;;;;;;;1.32;85.77;98598.17;1765140;78;21066;-57
2021/12/19 04:10:22;;;;;;;0.80;0.60;;;;;;;1.32;85.87;98597.72;1763841;78;21053;-56
2021/12/19 04:12:49;;;;;;;1.17;0.60;;;;;;;1.34;85.91;98589.73;1758742;78;20979;-57
2021/12/19 04:15:15;;;;;;;0.73;0.60;;;;;;;1.37;85.94;98590.48;1715628;80;21096;-55
2021/12/19 04:17:42;;;;;;;0.83;0.63;;;;;;;1.38;85.94;98576.77;1771999;77;20966;-56
2021/12/19 04:20:09;;;;;;;2.93;0.67;;;;;;;1.40;86.08;98565.67;1768216;78;20941;-53
2021/12/19 04:22:35;;;;;;;2.73;0.97;;;;;;;1.40;86.02;98553.28;1767694;78;21032;-55
2021/12/19 04:25:02;;;;;;;1.10;0.60;;;;;;;1.41;85.96;98552.37;1770651;78;21009;-57
2021/12/19 04:27:29;;;;;;;0.63;0.60;;;;;;;1.43;85.98;98551.88;1767264;78;21497;-57
2021/12/19 04:29:56;;;;;;;2.10;0.70;;;;;;;1.45;86.02;98553.13;1769458;78;21510;-57
2021/12/19 04:32:31;;;;;;;0.70;0.60;;;;;;;1.44;86.09;98552.30;1767970;78;22190;-56
2021/12/19 04:34:53;;;;;;;1.57;0.60;;;;;;;1.46;86.11;98549.11;1767696;78;20910;-56
2021/12/19 04:40:47;;;;;;;1.30;0.70;;;;;;;1.45;86.18;98543.39;1719426;78;21128;-57
2021/12/19 04:53:11;;;;;;;;;;;;;;;1.48;86.53;98514.59;1767782;78;22537;-54
2021/12/19 04:58:46;;;;;;;1.02;0.60;;;;;;;1.53;86.78;98497.61;1773846;78;21303;-53
2021/12/19 05:01:08;;;;;;;1.03;0.60;;;;;;;1.56;86.85;98486.05;1768158;78;20935;-55
2021/12/19 05:14:12;;;;;;;0.75;0.70;;;;;;;1.56;86.77;98459.98;1773158;78;21069;-55
2021/12/19 05:16:40;;;;;;;0.70;0.60;;;;;;;1.58;86.85;98459.48;1772789;78;21018;-57
2021/12/19 05:19:17;;;;;;;0.70;0.50;;;;;;;1.60;86.96;98450.56;1770304;78;21155;-54
2021/12/19 05:21:38;;;;;;;0.80;0.60;;;;;;;1.64;86.99;98446.01;1766632;78;21339;-56
2021/12/19 05:26:49;;;;;;;0.77;0.60;;;;;;;1.65;86.99;98416.78;1767698;78;21048;-57
2021/12/19 05:29:16;;;;;;;0.80;0.50;;;;;;;1.61;86.98;98412.52;1766509;78;21119;-55
2021/12/19 05:31:43;;;;;;;0.70;0.50;;;;;;;1.60;86.96;98398.84;1770269;78;21061;-56
2021/12/19 05:34:11;;;;;;;0.70;0.50;;;;;;;1.59;86.95;98396.24;1770420;78;21508;-58
2021/12/19 05:47:37;;;;;;;0.70;0.50;;;;;;;1.63;87.28;98385.46;1773956;78;21123;-57
2021/12/19 05:50:04;;;;;;;0.90;0.67;;;;;;;1.67;87.39;98385.78;1767954;78;21100;-55
2021/12/19 05:52:32;;;;;;;1.00;0.60;;;;;;;1.69;87.32;98381.30;1767983;78;21064;-56
2021/12/19 05:54:59;;;;;;;1.27;0.60;;;;;;;1.70;87.41;98375.53;1767607;78;21557;-56
2021/12/19 05:57:25;;;;;;;0.93;0.60;;;;;;;1.70;87.43;98363.11;1765011;78;21031;-56
2021/12/19 05:59:51;;;;;;;1.50;0.80;;;;;;;1.70;87.34;98368.91;1774419;78;21045;-55
2021/12/19 06:02:17;;;;;;;2.07;0.70;;;;;;;1.68;87.36;98354.81;1766896;78;21048;-55
2021/12/19 06:04:44;;;;;;;0.90;0.70;;;;;;;1.67;87.43;98347.31;1766723;78;21049;-55
2021/12/19 06:07:10;;;;;;;1.13;0.70;;;;;;;1.67;87.53;98343.80;1773563;78;21076;-56
2021/12/19 06:09:37;;;;;;;1.47;0.70;;;;;;;1.69;87.64;98328.70;1768009;78;21089;-56
2021/12/19 06:12:04;;;;;;;1.17;0.80;;;;;;;1.73;87.64;98318.38;1762363;78;21052;-55
2021/12/19 06:14:33;;;;;;;0.83;0.60;;;;;;;1.75;87.68;98307.25;1752997;78;20926;-56
2021/12/19 06:17:01;;;;;;;1.00;0.70;;;;;;;1.79;87.70;98310.19;1765234;78;21053;-58
2021/12/19 06:19:27;;;;;;;2.00;0.90;;;;;;;1.81;87.73;98317.64;1769710;78;20938;-58
2021/12/19 06:21:54;;;;;;;1.10;0.93;;;;;;;1.80;87.70;98314.58;1707069;82;21082;-54
2021/12/19 06:24:21;;;;;;;1.00;0.80;;;;;;;1.77;87.65;98303.64;1719715;80;21160;-57
2021/12/19 06:26:47;;;;;;;1.20;1.00;;;;;;;1.77;87.68;98297.46;1765695;78;21068;-55
2021/12/19 06:29:13;;;;;;;1.20;0.80;;;;;;;1.77;87.74;98297.46;1768194;78;21595;-55
2021/12/19 06:31:40;;;;;;;1.43;0.90;;;;;;;1.78;87.82;98312.46;1767194;78;20886;-55
2021/12/19 06:34:06;;;;;;;0.93;0.70;;;;;;;1.78;87.84;98314.66;1769870;78;21819;-55
2021/12/19 06:36:33;;;;;;;1.53;1.00;;;;;;;1.80;88.01;98299.52;1772091;78;21246;-56
2021/12/19 06:39:01;;;;;;;1.30;1.00;;;;;;;1.82;87.98;98302.13;1785070;77;20944;-57
2021/12/19 06:41:28;;;;;;;1.77;1.00;;;;;;;1.86;88.05;98306.42;1801083;77;21901;-57
2021/12/19 06:43:54;;;;;;;1.13;0.77;;;;;;;1.90;88.05;98302.25;1798413;77;21457;-55
2021/12/19 06:46:20;;;;;;;1.87;1.10;;;;;;;1.93;88.01;98287.15;1796369;77;21046;-57
2021/12/19 06:48:47;;;;;;;2.23;1.10;;;;;;;1.93;87.99;98273.42;1800519;77;21088;-58
2021/12/19 06:51:13;;;;;;;1.57;1.13;;;;;;;1.93;87.95;98268.58;1796358;77;21386;-57
2021/12/19 06:53:40;;;;;;;1.90;1.40;;;;;;;1.95;87.92;98261.44;1797614;77;22537;-56
2021/12/19 06:56:06;;;;;;;1.17;1.00;;;;;;;1.94;87.88;98267.20;1797829;77;21083;-58
2021/12/19 06:58:33;;;;;;;1.43;0.97;;;;;;;1.95;87.91;98238.88;1797229;77;22708;-55
2021/12/19 07:00:59;;;;;;;1.13;0.87;;;;;;;1.96;87.99;98221.55;1797568;77;21356;-58
2021/12/19 07:03:26;;;;;;;1.00;0.80;;;;;;;1.98;87.99;98213.07;1796640;77;21634;-58
2021/12/19 07:05:52;;;;;;;1.10;0.77;;;;;;;1.99;87.96;98240.02;1799722;77;21444;-55
2021/12/19 07:08:19;;;;;;;1.03;0.90;;;;;;;2.02;88.06;98249.66;1797908;77;21091;-58
2021/12/19 07:10:46;;;;;;;1.23;0.90;;;;;;;2.04;88.14;98278.34;1799078;77;21553;-57
2021/12/19 07:13:18;;;;;;;1.30;1.10;;;;;;;2.06;88.18;98269.84;1801958;77;21683;-54
2021/12/19 07:15:41;;;;;;;1.97;0.90;;;;;;;2.06;88.07;98280.45;1799572;77;21563;-58
2021/12/19 07:18:08;;;;;;;1.60;1.30;;;;;;;2.05;88.03;98279.58;1801228;77;21099;-57
2021/12/19 07:20:34;;;;;;;1.80;1.10;;;;;;;2.06;87.98;98279.98;1800719;77;21465;-55
2021/12/19 07:23:01;;;;;;;2.07;1.20;;;;;;;2.06;87.99;98269.38;1800947;77;22682;-56
2021/12/19 07:25:27;;;;;;;1.43;0.80;;;;;;;2.06;88.04;98258.76;1797618;77;21623;-55
2021/12/19 07:27:54;;;;;;;1.47;0.80;;;;;;;2.07;88.12;98246.36;1797694;77;21059;-55
2021/12/19 07:30:24;;;;;;;1.30;0.90;;;;;;;2.08;88.10;98235.69;1801186;77;21038;-56
2021/12/19 07:32:49;;;;;;;1.30;0.93;;;;;;;2.10;88.14;98225.88;1795624;77;22243;-55
2021/12/19 07:35:15;;;;;;;0.97;0.70;;;;;;;2.08;88.14;98217.11;1795841;77;21561;-58
2021/12/19 07:37:41;;;;;;;1.37;1.00;;;;;;;2.10;88.20;98217.92;1797219;77;21075;-55
2021/12/19 07:40:16;;;;;;;1.30;0.90;;;;;;;2.12;88.23;98204.59;1724919;80;21044;-56
2021/12/19 07:42:42;;;;;;;3.10;1.30;;;;;;;2.15;88.29;98176.58;1738406;79;21073;-54
2021/12/19 07:45:10;;;;;;;1.93;1.10;;;;;;;2.13;88.30;98155.86;1784906;77;22153;-56
2021/12/19 07:47:43;;;;;;;2.33;1.57;;;;;;;2.11;88.27;98154.63;1801302;77;21764;-58
2021/12/19 07:50:07;;;;;;;1.87;1.20;;;;;;;2.11;88.27;98155.95;1799953;77;20975;-58
2021/12/19 07:52:34;;;;;;;1.97;1.20;;;;;;;2.10;88.30;98151.56;1801715;77;20873;-58
2021/12/19 07:55:01;;;;;;;3.03;1.30;;;;;;;2.12;88.42;98159.47;1800343;77;20939;-57
2021/12/19 07:57:27;;;;;;;2.97;1.60;;;;;;;2.14;88.53;98158.46;1800571;77;21450;-57
2021/12/19 07:59:54;;;;;;;3.23;1.87;;;;;;;2.18;88.51;98164.06;1799279;77;21485;-54
2021/12/19 08:02:20;;;;;;;2.80;1.50;;;;;;;2.21;88.51;98175.03;1731628;80;21507;-56
2021/12/19 08:04:47;;;;;;;2.83;2.00;;;;;;;2.22;88.55;98175.41;1741323;80;22001;-57
2021/12/19 08:07:16;;;;;;;4.37;2.90;;;;;;;2.23;88.59;98171.37;1740669;80;21362;-56
2021/12/19 08:09:59;;;;;;;4.40;2.80;;;;;;;2.25;88.55;98164.68;1803944;77;20901;-54
2021/12/19 08:12:10;;;;;;;3.97;3.27;;;;;;;2.24;88.45;98165.14;1799390;77;21083;-58
2021/12/19 08:14:36;;;;;;;2.20;1.40;;;;;;;2.24;88.46;98150.54;1799205;77;21106;-56
2021/12/19 08:17:03;;;;;;;4.57;2.03;;;;;;;2.23;88.50;98158.09;1799186;77;21055;-58
2021/12/19 08:19:30;;;;;;;3.57;1.93;;;;;;;2.22;88.54;98159.02;1795188;77;21552;-55
2021/12/19 08:21:56;;;;;;;3.60;2.53;;;;;;;2.24;88.65;98143.03;1798825;77;21063;-59
2021/12/19 08:24:22;;;;;;;2.77;1.70;;;;;;;2.26;88.71;98136.75;1798259;77;21685;-59
2021/12/19 08:26:49;;;;;;;3.40;2.40;;;;;;;2.30;88.72;98128.67;1796548;77;21099;-57
2021/12/19 08:29:15;;;;;;;3.87;2.23;;;;;;;2.28;88.66;98118.97;1796712;77;21071;-59
2021/12/19 08:31:42;;;;;;;3.23;2.00;;;;;;;2.31;88.67;98111.78;1799143;77;21453;-58
2021/12/19 08:34:09;;;;;;;3.57;2.17;;;;;;;2.31;88.67;98113.98;1796022;77;21487;-55
2021/12/19 08:36:35;;;;;;;3.20;2.23;;;;;;;2.35;88.78;98126.22;1799918;77;21035;-56
2021/12/19 08:39:03;;;;;;;4.40;3.40;;;;;;;2.40;88.74;98126.02;1804755;77;21041;-58
2021/12/19 08:41:30;;;;;;;4.27;2.93;;;;;;;2.41;88.66;98123.77;1800131;77;21499;-60
2021/12/19 08:43:56;;;;;;;4.90;2.60;;;;;;;2.42;88.65;98109.56;1795504;77;22552;-57
2021/12/19 08:46:22;;;;;;;6.10;3.07;;;;;;;2.40;88.62;98108.75;1796925;77;21100;-57
2021/12/19 08:48:49;;;;;;;3.90;2.40;;;;;;;2.39;88.56;98102.58;1795929;77;21162;-57
2021/12/19 08:51:15;;;;;;;4.47;2.17;;;;;;;2.40;88.54;98095.47;1800280;77;21027;-56
2021/12/19 08:53:42;;;;;;;3.40;2.10;;;;;;;2.40;88.55;98094.14;1797865;77;21055;-58
2021/12/19 08:56:08;;;;;;;3.90;2.30;;;;;;;2.40;88.57;98088.84;1797781;77;21723;-57
2021/12/19 08:58:34;;;;;;;3.93;2.37;;;;;;;2.41;88.60;98089.23;1798154;77;21040;-54
2021/12/19 09:01:02;;;;;;;3.80;2.50;;;;;;;2.41;88.53;98080.81;1729442;80;21722;-55
2021/12/19 09:03:30;;;;;;;9.07;3.13;;;;;;;2.42;88.47;98073.70;1738632;80;22787;-54
2021/12/19 09:05:57;;;;;;;4.33;2.27;;;;;;;2.42;88.28;98079.89;1798025;77;21087;-55
2021/12/19 09:08:23;;;;;;;2.40;1.80;;;;;;;2.37;87.98;98075.70;1800504;77;21022;-58
2021/12/19 09:10:51;;;;;;;3.03;2.13;;;;;;;2.31;87.85;98070.63;1798677;77;21492;-57
2021/12/19 09:13:17;;;;;;;2.40;1.20;;;;;;;2.26;87.80;98069.05;1799038;77;21178;-57
2021/12/19 09:15:44;;;;;;;3.07;1.67;;;;;;;2.22;87.70;98068.76;1726781;80;21107;-54
2021/12/19 09:18:12;;;;;;;5.13;2.10;;;;;;;2.19;87.56;98060.08;1805772;77;20960;-57
2021/12/19 09:20:39;;;;;;;4.60;1.80;;;;;;;2.16;87.42;98066.83;1732600;80;21214;-55
2021/12/19 09:23:05;;;;;;;3.53;1.53;;;;;;;2.13;87.40;98051.89;1735807;80;21102;-56
2021/12/19 09:25:31;;;;;;;3.93;2.10;;;;;;;2.11;87.27;98049.78;1712877;80;21062;-56
2021/12/19 09:27:58;;;;;;;6.90;2.63;;;;;;;2.07;87.21;98049.95;1770298;78;21092;-55
2021/12/19 09:30:25;;;;;;;2.87;2.03;;;;;;;2.02;87.17;98042.66;1777457;77;21083;-59
2021/12/19 09:32:51;;;;;;;2.87;1.97;;;;;;;1.99;87.09;98030.37;1797539;77;21176;-58
2021/12/19 09:35:18;;;;;;;4.47;1.20;;;;;;;1.96;86.98;98022.52;1801412;77;21521;-57
2021/12/19 09:37:44;;;;;;;4.67;1.30;;;;;;;1.94;87.04;98020.88;1802645;77;21144;-55
2021/12/19 09:40:17;;;;;;;1.90;0.90;;;;;;;1.95;87.14;98008.88;1785675;77;21083;-57
2021/12/19 09:42:47;;;;;;;2.20;0.90;;;;;;;1.99;87.32;97996.33;1773693;78;21028;-58
2021/12/19 09:45:10;;;;;;;1.87;1.00;;;;;;;2.03;87.35;97985.55;1776659;78;20941;-57
2021/12/19 09:47:37;;;;;;;2.37;1.10;;;;;;;2.09;87.44;97984.41;1778111;78;21090;-58
2021/12/19 09:50:05;;;;;;;4.03;1.30;;;;;;;2.14;87.55;97981.95;1771045;78;21109;-57
2021/12/19 09:52:32;;;;;;;4.93;2.40;;;;;;;2.19;87.64;97975.14;1783923;78;21318;-56
2021/12/19 09:54:58;;;;;;;5.70;1.67;;;;;;;2.23;87.65;97956.34;1773580;78;21712;-55
2021/12/19 09:57:24;;;;;;;2.93;1.50;;;;;;;2.27;87.63;97955.30;1769131;78;21726;-57
2021/12/19 09:59:51;;;;;;;1.63;0.80;;;;;;;2.27;87.70;97947.33;1767783;78;21068;-57
2021/12/19 10:02:18;;;;;;;2.53;1.47;;;;;;;2.34;87.82;97953.69;1715402;81;21532;-56
2021/12/19 10:04:44;;;;;;;2.40;1.00;;;;;;;2.38;87.97;97949.52;1719341;80;21019;-55
2021/12/19 10:07:23;;;;;;;2.40;1.10;;;;;;;2.44;88.07;97943.06;1713964;81;21061;-58
2021/12/19 10:10:10;;;;;;;2.27;1.20;;;;;;;2.51;88.14;97933.89;1711614;81;21043;-57
2021/12/19 10:15:18;;;;;;;1.80;1.13;;;;;;;2.61;88.35;97929.90;1772794;78;21126;-56
2021/12/19 10:17:47;;;;;;;2.27;1.23;;;;;;;2.67;88.34;97926.95;1709987;80;21055;-56
2021/12/19 10:20:16;;;;;;;2.23;0.73;;;;;;;2.71;88.34;97915.73;1719202;80;21520;-59
2021/12/19 10:22:47;;;;;;;1.60;0.83;;;;;;;2.77;88.41;97907.47;1771905;78;21069;-56
2021/12/19 10:25:27;;;;;;;1.47;0.80;;;;;;;2.80;88.37;97904.69;1772175;78;21895;-55
2021/12/19 10:27:58;;;;;;;1.20;0.80;;;;;;;2.83;88.40;97893.42;1774348;78;22926;-57
2021/12/19 10:30:35;;;;;;;1.73;0.90;;;;;;;2.88;88.46;97883.93;1767144;78;21044;-56
2021/12/19 10:33:09;;;;;;;1.73;0.73;;;;;;;2.94;88.53;97886.29;1775685;78;21411;-58
2021/12/19 10:35:47;;;;;;;;;;;;;;;2.98;88.56;97887.85;1776156;78;20898;-57
2021/12/19 10:38:16;;;;;;;1.67;0.70;;;;;;;2.98;88.59;97880.74;1772806;78;20500;-58
2021/12/19 10:41:03;;;;;;;0.90;0.60;;;;;;;3.00;88.66;97872.70;1774571;78;21109;-57
2021/12/19 10:43:32;;;;;;;2.33;0.77;;;;;;;3.04;88.67;97854.36;1808741;77;20928;-56
2021/12/19 10:46:02;;;;;;;1.43;0.80;;;;;;;3.07;88.72;97848.02;1811402;77;21414;-56
2021/12/19 10:48:33;;;;;;;1.60;0.80;;;;;;;3.10;88.77;97841.23;1804336;77;21027;-54
2021/12/19 10:51:08;;;;;;;0.97;0.70;;;;;;;3.12;88.83;97835.38;1803653;77;20901;-56
2021/12/19 10:53:50;;;;;;;1.83;0.80;;;;;;;3.16;88.87;97828.48;1805244;77;21080;-55
2021/12/19 10:56:29;;;;;;;1.20;0.70;;;;;;;3.20;88.88;97821.24;1807255;77;21588;-56
2021/12/19 10:59:15;;;;;;;1.50;0.80;;;;;;;3.23;88.92;97815.28;1802648;77;20854;-58
2021/12/19 11:01:44;;;;;;;1.33;0.80;;;;;;;3.29;88.88;97811.02;1801923;77;20889;-56
2021/12/19 11:04:21;;;;;;;1.33;0.70;;;;;;;3.35;88.98;97809.84;1813944;77;20894;-57
2021/12/19 11:06:56;;;;;;;1.87;1.00;;;;;;;3.40;88.92;97802.50;1806702;77;21055;-58
2021/12/19 11:09:29;;;;;;;;;;;;;;;3.43;88.89;97797.02;1801398;77;20893;-56
2021/12/19 11:12:00;;;;;;;1.97;1.10;;;;;;;3.47;88.90;97789.75;1808716;77;20135;-56
2021/12/19 11:14:40;;;;;;;1.30;0.80;;;;;;;3.46;88.88;97787.56;1808381;77;20901;-59
2021/12/19 11:17:22;;;;;;;1.03;0.80;;;;;;;3.45;88.80;97778.33;1801137;77;21745;-59
2021/12/19 11:19:51;;;;;;;1.17;0.70;;;;;;;3.46;88.81;97783.57;1800072;78;22206;-56
2021/12/19 11:22:27;;;;;;;1.60;0.87;;;;;;;3.47;88.83;97783.97;1806329;77;21364;-56
2021/12/19 11:25:04;;;;;;;2.30;0.73;;;;;;;3.48;88.86;97776.37;1729742;80;21092;-60
2021/12/19 11:27:30;;;;;;;1.53;1.00;;;;;;;3.50;88.85;97770.95;1743834;80;20872;-58
2021/12/19 11:29:57;;;;;;;3.63;0.90;;;;;;;3.52;88.85;97777.93;1741300;80;21062;-59
2021/12/19 11:32:58;;;;;;;1.63;0.80;;;;;;;3.56;88.85;97771.53;1741494;80;21706;-56
2021/12/19 11:35:25;;;;;;;0.97;0.80;;;;;;;3.59;88.77;97765.16;1744911;79;21367;-56
2021/12/19 11:37:58;;;;;;;1.40;0.80;;;;;;;3.63;88.69;97762.75;1740222;80;21039;-57
2021/12/19 11:40:24;;;;;;;2.47;0.90;;;;;;;3.64;88.58;97750.70;1749001;79;22390;-57
2021/12/19 11:42:51;;;;;;;1.77;0.80;;;;;;;3.65;88.49;97747.58;1715397;82;21040;-59
2021/12/19 11:45:40;;;;;;;2.03;0.80;;;;;;;3.66;88.42;97743.48;1686612;80;23379;-56
2021/12/19 11:48:26;;;;;;;1.30;0.80;;;;;;;3.68;88.35;97738.94;1800968;77;21677;-55
2021/12/19 11:50:59;;;;;;;1.53;0.80;;;;;;;3.71;88.34;97741.92;1750731;79;21549;-54
2021/12/19 11:55:22;;;;;;;1.73;0.80;;;;;;;3.78;88.21;97732.20;1843932;75;22665;-57
2021/12/19 11:58:11;;;;;;;1.37;0.80;;;;;;;3.76;88.09;97740.73;1780124;78;20984;-58
2021/12/19 12:00:55;;;;;;;1.17;0.80;;;;;;;3.75;87.93;97725.70;1786872;78;21166;-55
2021/12/19 12:03:25;;;;;;;1.00;0.60;;;;;;;3.72;87.91;97734.34;1774591;78;21452;-56
2021/12/19 12:05:55;;;;;;;0.93;0.60;;;;;;;3.68;87.88;97733.62;1774866;78;20910;-56
2021/12/19 12:08:23;;;;;;;1.57;0.60;;;;;;;3.69;87.91;97732.69;1775046;78;21068;-59
2021/12/19 12:10:59;;;;;;;1.00;0.60;;;;;;;3.70;87.87;97725.09;1785592;78;20996;-58
2021/12/19 12:13:29;;;;;;;1.23;0.60;;;;;;;3.72;87.85;97717.04;1779170;78;20945;-58
2021/12/19 12:16:10;;;;;;;0.90;0.50;;;;;;;3.75;87.78;97716.86;1781887;78;21023;-58
2021/12/19 12:18:37;;;;;;;0.80;0.45;;;;;;;3.79;87.72;97719.29;1782220;78;20937;-56
2021/12/19 12:21:32;;;;;;;0.73;0.50;;;;;;;3.83;87.65;97713.31;1781031;78;21041;-54
2021/12/19 12:24:06;;;;;;;1.93;0.60;;;;;;;3.86;87.60;97714.96;1779027;78;21064;-56
2021/12/19 12:26:45;;;;;;;0.73;0.40;;;;;;;3.86;87.54;97715.83;1785481;78;21168;-54
2021/12/19 12:29:10;;;;;;;0.70;0.43;;;;;;;3.86;87.41;97715.83;1780924;78;22408;-54
2021/12/19 12:31:37;;;;;;;0.60;0.40;;;;;;;3.86;87.33;97717.16;1781079;78;21651;-54
2021/12/19 12:34:06;;;;;;;0.90;0.40;;;;;;;3.86;87.35;97713.16;1780731;78;21541;-58
2021/12/19 12:36:33;;;;;;;0.50;0.40;;;;;;;3.88;87.24;97723.73;1752094;78;20866;-56
2021/12/19 12:39:04;;;;;;;0.43;0.20;;;;;;;3.89;87.14;97720.13;1781094;78;21068;-57
2021/12/19 12:41:35;;;;;;;0.40;0.20;;;;;;;3.91;87.06;97719.59;1777246;78;21008;-57
2021/12/19 12:44:05;;;;;;;0.40;0.20;;;;;;;3.92;86.96;97715.48;1775600;78;21445;-57
2021/12/19 12:46:32;;;;;;;0.20;0.20;;;;;;;3.92;86.84;97714.63;1714344;81;21066;-54
2021/12/19 12:49:10;;;;;;;0.40;0.20;;;;;;;3.92;86.74;97722.61;1723293;81;21100;-57
2021/12/19 12:51:58;;;;;;;0.30;0.20;;;;;;;3.89;86.63;97730.78;1733022;80;23019;-59
2021/12/19 12:54:30;;;;;;;0.37;0.20;;;;;;;3.85;86.58;97723.88;1737452;80;20922;-56